createdAt,value
2023-02-05T00:01:28.122Z,6.47
2023-02-05T00:03:54.782Z,6.85
2023-02-05T00:06:21.487Z,6.38
2023-02-05T00:08:48.287Z,7.13
2023-02-05T00:11:14.963Z,7.38
2023-02-05T00:13:42.713Z,6.90
2023-02-05T00:16:11.023Z,6.35
2023-02-05T00:18:37.777Z,7.00
2023-02-05T00:21:05.779Z,7.32
2023-02-05T00:23:32.984Z,7.55
2023-02-05T00:25:59.758Z,7.05
2023-02-05T00:28:26.652Z,7.30
2023-02-05T00:30:53.387Z,7.53
2023-02-05T00:33:21.857Z,7.13
2023-02-05T00:35:48.485Z,7.63
2023-02-05T00:38:15.136Z,6.65
2023-02-05T00:40:41.756Z,7.05
2023-02-05T00:43:08.397Z,6.65
2023-02-05T00:45:35.834Z,6.28
2023-02-05T00:48:04.116Z,6.75
2023-02-05T00:50:31.187Z,6.80
2023-02-05T00:52:57.906Z,6.60
2023-02-05T00:55:24.790Z,7.00
2023-02-05T00:57:51.457Z,6.63
2023-02-05T01:00:18.733Z,6.97
2023-02-05T01:02:45.590Z,6.95
2023-02-05T01:05:12.488Z,6.65
2023-02-05T01:07:39.163Z,6.75
2023-02-05T01:10:06.762Z,6.70
2023-02-05T01:12:33.435Z,6.00
2023-02-05T01:15:06.290Z,6.95
2023-02-05T01:17:33.332Z,6.50
2023-02-05T01:19:59.941Z,6.32
2023-02-05T01:22:26.917Z,7.40
2023-02-05T01:24:53.608Z,7.05
2023-02-05T01:27:20.288Z,7.22
2023-02-05T01:29:46.978Z,6.95
2023-02-05T01:32:13.612Z,7.72
2023-02-05T01:34:40.222Z,7.20
2023-02-05T01:37:06.863Z,7.97
2023-02-05T01:39:33.496Z,7.18
2023-02-05T01:42:00.129Z,7.03
2023-02-05T01:44:26.825Z,7.68
2023-02-05T01:46:55.455Z,6.50
2023-02-05T01:49:27.651Z,7.45
2023-02-05T01:51:56.068Z,8.30
2023-02-05T01:54:26.417Z,8.50
2023-02-05T01:57:03.227Z,6.53
2023-02-05T01:59:33.179Z,6.90
2023-02-05T02:02:01.339Z,7.65
2023-02-05T02:04:52.460Z,7.10
2023-02-05T02:07:22.746Z,6.50
2023-02-05T02:09:50.140Z,6.55
2023-02-05T02:12:22.854Z,6.63
2023-02-05T02:14:53.223Z,7.50
2023-02-05T02:17:21.849Z,7.68
2023-02-05T02:20:01.795Z,7.20
2023-02-05T02:22:57.636Z,8.40
2023-02-05T02:25:42.462Z,6.53
2023-02-05T02:28:40.727Z,6.75
2023-02-05T02:31:17.467Z,6.50
2023-02-05T02:34:05.040Z,7.20
2023-02-05T02:37:01.125Z,7.10
2023-02-05T02:39:39.007Z,6.40
2023-02-05T02:42:13.404Z,6.60
2023-02-05T02:44:53.695Z,6.50
2023-02-05T02:47:28.134Z,6.40
2023-02-05T02:50:06.155Z,6.63
2023-02-05T02:52:39.134Z,6.75
2023-02-05T02:55:09.808Z,6.70
2023-02-05T02:57:39.856Z,6.60
2023-02-05T03:00:13.325Z,6.95
2023-02-05T03:02:43.543Z,6.95
2023-02-05T03:05:15.821Z,8.35
2023-02-05T03:07:51.994Z,6.65
2023-02-05T03:10:34.585Z,7.60
2023-02-05T03:13:01.320Z,7.10
2023-02-05T03:15:27.964Z,7.00
2023-02-05T03:17:55.529Z,7.20
2023-02-05T03:20:32.899Z,7.10
2023-02-05T03:22:59.613Z,7.15
2023-02-05T03:25:29.201Z,7.07
2023-02-05T03:27:56.866Z,6.93
2023-02-05T03:30:28.199Z,7.43
2023-02-05T03:33:04.681Z,6.93
2023-02-05T03:35:46.371Z,7.88
2023-02-05T03:38:12.948Z,6.78
2023-02-05T03:40:57.971Z,6.93
2023-02-05T03:43:45.635Z,7.20
2023-02-05T03:46:17.833Z,7.10
2023-02-05T03:49:17.599Z,6.60
2023-02-05T03:52:14.930Z,7.05
2023-02-05T03:54:51.006Z,6.90
2023-02-05T03:57:48.729Z,7.10
2023-02-05T04:00:15.770Z,6.72
2023-02-05T04:02:43.215Z,6.88
2023-02-05T04:05:09.908Z,6.50
2023-02-05T04:07:36.539Z,7.20
2023-02-05T04:10:04.068Z,6.70
2023-02-05T04:12:30.701Z,7.38
2023-02-05T04:14:57.368Z,7.03
2023-02-05T04:17:23.958Z,7.85
2023-02-05T04:19:50.570Z,7.22
2023-02-05T04:22:17.176Z,7.45
2023-02-05T04:24:43.811Z,7.70
2023-02-05T04:27:10.453Z,7.57
2023-02-05T04:29:37.113Z,8.25
2023-02-05T04:32:03.823Z,7.90
2023-02-05T04:34:30.508Z,7.60
2023-02-05T04:36:57.226Z,7.95
2023-02-05T04:39:23.871Z,7.20
2023-02-05T04:41:50.501Z,7.88
2023-02-05T04:44:17.132Z,8.48
2023-02-05T04:46:43.744Z,7.10
2023-02-05T04:49:10.367Z,7.53
2023-02-05T04:51:36.987Z,8.00
2023-02-05T04:54:03.782Z,7.50
2023-02-05T04:56:30.428Z,7.18
2023-02-05T04:58:57.053Z,7.40
2023-02-05T05:01:23.992Z,7.78
2023-02-05T05:03:51.103Z,8.05
2023-02-05T05:06:18.913Z,7.18
2023-02-05T05:08:46.166Z,8.23
2023-02-05T05:11:16.084Z,7.97
2023-02-05T05:13:43.168Z,7.70
2023-02-05T05:16:10.900Z,7.13
2023-02-05T05:18:38.477Z,7.40
2023-02-05T05:21:05.796Z,7.10
2023-02-05T05:23:33.744Z,8.60
2023-02-05T05:26:07.462Z,7.72
2023-02-05T05:28:35.289Z,7.95
2023-02-05T05:31:16.774Z,7.50
2023-02-05T05:33:43.508Z,7.50
2023-02-05T05:36:10.174Z,7.70
2023-02-05T05:38:36.836Z,7.68
2023-02-05T05:41:22.894Z,7.80
2023-02-05T05:43:50.945Z,7.53
2023-02-05T05:46:36.519Z,7.00
2023-02-05T05:49:04.251Z,8.43
2023-02-05T05:51:32.586Z,8.40
2023-02-05T05:53:59.323Z,8.02
2023-02-05T05:56:26.008Z,7.85
2023-02-05T05:58:52.983Z,8.32
2023-02-05T06:01:22.182Z,8.80
2023-02-05T06:03:49.728Z,8.93
2023-02-05T06:06:16.488Z,8.25
2023-02-05T06:08:43.158Z,8.90
2023-02-05T06:11:09.892Z,8.73
2023-02-05T06:13:36.566Z,8.80
2023-02-05T06:16:04.002Z,8.80
2023-02-05T06:18:31.042Z,8.20
2023-02-05T06:20:57.846Z,8.75
2023-02-05T06:23:24.663Z,7.95
2023-02-05T06:25:51.361Z,8.55
2023-02-05T06:28:18.057Z,8.32
2023-02-05T06:30:44.746Z,8.35
2023-02-05T06:33:12.703Z,8.85
2023-02-05T06:35:40.704Z,8.75
2023-02-05T06:38:07.373Z,9.65
2023-02-05T06:40:34.207Z,9.00
2023-02-05T06:43:00.825Z,9.60
2023-02-05T06:45:27.452Z,9.30
2023-02-05T06:47:55.961Z,9.20
2023-02-05T06:50:23.259Z,9.80
2023-02-05T06:52:51.151Z,10.77
2023-02-05T06:55:18.264Z,9.60
2023-02-05T06:57:44.909Z,10.75
2023-02-05T07:00:12.615Z,9.85
2023-02-05T07:02:39.322Z,10.27
2023-02-05T07:05:06.303Z,9.45
2023-02-05T07:07:33.620Z,9.65
2023-02-05T07:10:00.841Z,11.25
2023-02-05T07:12:27.690Z,10.63
2023-02-05T07:14:54.345Z,11.10
2023-02-05T07:17:20.973Z,10.30
2023-02-05T07:19:47.651Z,10.40
2023-02-05T07:22:15.303Z,10.25
2023-02-05T07:24:41.966Z,10.93
2023-02-05T07:27:08.731Z,9.80
2023-02-05T07:29:35.359Z,11.48
2023-02-05T07:32:02.102Z,11.85
2023-02-05T07:34:28.784Z,10.48
2023-02-05T07:36:55.418Z,12.35
2023-02-05T07:39:22.061Z,11.98
2023-02-05T07:41:48.744Z,9.80
2023-02-05T07:44:15.347Z,9.70
2023-02-05T07:46:42.188Z,10.05
2023-02-05T07:49:08.890Z,9.43
2023-02-05T07:51:35.556Z,10.70
2023-02-05T07:54:09.558Z,10.77
2023-02-05T07:56:36.597Z,9.85
2023-02-05T07:59:03.316Z,10.73
2023-02-05T08:01:29.975Z,11.18
2023-02-05T08:03:56.653Z,11.13
2023-02-05T08:06:23.314Z,10.85
2023-02-05T08:08:50.116Z,9.77
2023-02-05T08:11:17.943Z,10.02
2023-02-05T08:13:45.522Z,10.10
2023-02-05T08:16:15.567Z,10.32
2023-02-05T08:18:43.099Z,10.45
2023-02-05T08:21:09.743Z,10.32
2023-02-05T08:23:36.536Z,9.80
2023-02-05T08:26:03.696Z,10.35
2023-02-05T08:28:30.553Z,10.35
2023-02-05T08:30:57.276Z,10.38
2023-02-05T08:33:24.642Z,9.85
2023-02-05T08:35:51.336Z,10.30
2023-02-05T08:38:18.465Z,10.30
2023-02-05T08:40:45.278Z,11.15
2023-02-05T08:43:12.147Z,10.80
2023-02-05T08:45:39.136Z,9.45
2023-02-05T08:48:05.930Z,10.15
2023-02-05T08:50:32.607Z,10.75
2023-02-05T08:52:59.247Z,9.75
2023-02-05T08:55:25.915Z,9.90
2023-02-05T08:57:52.967Z,9.32
2023-02-05T09:00:21.081Z,9.75
2023-02-05T09:02:48.321Z,10.05
2023-02-05T09:05:15.841Z,11.02
2023-02-05T09:07:42.576Z,11.43
2023-02-05T09:10:12.278Z,10.60
2023-02-05T09:12:39.226Z,10.60
2023-02-05T09:15:06.932Z,10.02
2023-02-05T09:17:33.589Z,9.35
2023-02-05T09:20:00.228Z,9.60
2023-02-05T09:22:26.936Z,10.43
2023-02-05T09:24:53.540Z,10.20
2023-02-05T09:27:20.906Z,10.63
2023-02-05T09:29:47.545Z,11.30
2023-02-05T09:32:14.333Z,10.30
2023-02-05T09:34:41.085Z,11.07
2023-02-05T09:37:07.725Z,9.20
2023-02-05T09:40:18.489Z,10.20
2023-02-05T09:42:49.716Z,10.02
2023-02-05T09:45:36.157Z,10.77
2023-02-05T09:48:22.569Z,10.70
2023-02-05T09:50:50.301Z,10.45
2023-02-05T09:53:19.796Z,10.65
2023-02-05T09:55:47.298Z,10.27
2023-02-05T09:58:21.335Z,10.98
2023-02-05T10:00:50.315Z,11.70
2023-02-05T10:03:26.905Z,10.73
2023-02-05T10:06:10.340Z,10.57
2023-02-05T10:08:50.062Z,10.90
2023-02-05T10:11:44.535Z,9.88
2023-02-05T10:14:25.069Z,10.63
2023-02-05T10:17:08.545Z,9.60
2023-02-05T10:19:58.965Z,10.75
2023-02-05T10:22:28.384Z,10.85
2023-02-05T10:25:32.912Z,10.63
2023-02-05T10:28:37.937Z,10.60
2023-02-05T10:31:41.767Z,10.77
2023-02-05T10:34:37.852Z,11.20
2023-02-05T10:37:11.918Z,10.80
2023-02-05T10:39:38.639Z,11.13
2023-02-05T10:42:07.311Z,11.60
2023-02-05T10:44:48.948Z,11.73
2023-02-05T10:47:43.078Z,11.30
2023-02-05T10:50:51.387Z,12.20
2023-02-05T10:53:24.665Z,11.35
2023-02-05T10:55:51.489Z,12.60
2023-02-05T10:58:41.368Z,11.65
2023-02-05T11:01:14.199Z,12.00
2023-02-05T11:03:48.145Z,11.55
2023-02-05T11:06:15.134Z,12.70
2023-02-05T11:08:44.163Z,12.35
2023-02-05T11:11:28.517Z,12.43
2023-02-05T11:14:01.681Z,11.77
2023-02-05T11:16:38.537Z,12.70
2023-02-05T11:19:18.358Z,11.93
2023-02-05T11:21:56.905Z,12.10
2023-02-05T11:24:32.850Z,14.98
2023-02-05T11:27:31.446Z,12.50
2023-02-05T11:30:17.814Z,12.35
2023-02-05T11:32:44.633Z,13.05
2023-02-05T11:35:19.290Z,15.38
2023-02-05T11:37:49.691Z,13.90
2023-02-05T11:40:27.257Z,12.00
2023-02-05T11:43:04.843Z,13.73
2023-02-05T11:45:33.864Z,14.15
2023-02-05T11:48:03.199Z,14.32
2023-02-05T11:50:32.760Z,14.77
2023-02-05T11:53:25.911Z,13.20
2023-02-05T11:55:56.464Z,13.65
2023-02-05T11:58:36.447Z,12.80
2023-02-05T12:01:19.921Z,12.75
2023-02-05T12:04:13.595Z,12.13
2023-02-05T12:06:43.429Z,12.55
2023-02-05T12:09:14.585Z,11.95
2023-02-05T12:12:04.219Z,13.23
2023-02-05T12:15:03.953Z,13.68
2023-02-05T12:17:41.373Z,13.25
2023-02-05T12:20:28.702Z,14.45
2023-02-05T12:23:23.623Z,13.35
2023-02-05T12:26:10.831Z,12.50
2023-02-05T12:28:50.987Z,11.85
2023-02-05T12:31:40.401Z,12.82
2023-02-05T12:34:29.312Z,13.82
2023-02-05T12:37:14.088Z,12.57
2023-02-05T12:39:46.752Z,12.32
2023-02-05T12:42:36.468Z,13.30
2023-02-05T12:45:03.075Z,12.60
2023-02-05T12:47:47.631Z,12.70
2023-02-05T12:50:43.167Z,12.07
2023-02-05T12:53:21.586Z,13.18
2023-02-05T12:56:22.027Z,13.10
2023-02-05T12:58:54.684Z,13.50
2023-02-05T13:01:42.085Z,14.00
2023-02-05T13:04:23.034Z,12.90
2023-02-05T13:06:50.848Z,13.20
2023-02-05T13:09:29.068Z,12.75
2023-02-05T13:12:06.449Z,14.20
2023-02-05T13:14:57.026Z,12.35
2023-02-05T13:17:27.140Z,12.40
2023-02-05T13:20:05.455Z,13.07
2023-02-05T13:22:53.244Z,12.60
2023-02-05T13:25:48.517Z,12.50
2023-02-05T13:28:40.625Z,12.80
2023-02-05T13:31:24.048Z,12.10
2023-02-05T13:33:52.657Z,12.68
2023-02-05T13:36:38.480Z,13.05
2023-02-05T13:39:34.242Z,13.15
2023-02-05T13:42:39.032Z,11.70
2023-02-05T13:45:14.639Z,13.60
2023-02-05T13:48:13.395Z,12.38
2023-02-05T13:51:17.390Z,12.60
2023-02-05T13:54:21.697Z,11.63
2023-02-05T13:57:00.528Z,12.00
2023-02-05T13:59:37.670Z,11.85
2023-02-05T14:02:24.654Z,13.13
2023-02-05T14:04:54.715Z,11.75
2023-02-05T14:07:43.095Z,12.27
2023-02-05T14:10:23.828Z,12.45
2023-02-05T14:12:50.599Z,12.43
2023-02-05T14:15:17.337Z,11.50
2023-02-05T14:17:43.991Z,11.98
2023-02-05T14:20:33.398Z,14.02
2023-02-05T14:23:02.425Z,13.60
2023-02-05T14:25:46.085Z,13.07
2023-02-05T14:28:15.801Z,11.80
2023-02-05T14:30:58.554Z,12.35
2023-02-05T14:33:35.848Z,12.20
2023-02-05T14:36:24.271Z,12.60
2023-02-05T14:38:52.319Z,12.52
2023-02-05T14:41:25.683Z,13.18
2023-02-05T14:44:03.391Z,11.90
2023-02-05T14:46:39.736Z,12.10
2023-02-05T14:49:20.083Z,11.75
2023-02-05T14:51:59.189Z,12.10
2023-02-05T14:54:31.711Z,11.50
2023-02-05T14:57:29.017Z,11.60
2023-02-05T15:00:06.893Z,10.73
2023-02-05T15:03:10.159Z,11.80
2023-02-05T15:05:48.806Z,11.18
2023-02-05T15:08:34.181Z,11.10
2023-02-05T15:11:03.779Z,11.25
2023-02-05T15:13:30.983Z,11.13
2023-02-05T15:16:13.010Z,11.93
2023-02-05T15:18:50.744Z,11.55
2023-02-05T15:21:43.148Z,10.88
2023-02-05T15:24:20.525Z,11.05
2023-02-05T15:26:53.282Z,10.65
2023-02-05T15:29:27.551Z,10.73
2023-02-05T15:31:58.532Z,10.85
2023-02-05T15:34:47.938Z,10.25
2023-02-05T15:37:23.218Z,10.38
2023-02-05T15:40:20.152Z,10.48
2023-02-05T15:42:55.884Z,10.77
2023-02-05T15:45:30.615Z,10.88
2023-02-05T15:48:10.896Z,10.63
2023-02-05T15:50:42.848Z,9.90
2023-02-05T15:53:21.714Z,10.65
2023-02-05T15:55:51.340Z,10.50
2023-02-05T15:58:24.193Z,10.98
2023-02-05T16:00:53.335Z,10.20
2023-02-05T16:03:32.507Z,11.13
2023-02-05T16:05:59.903Z,11.05
2023-02-05T16:08:29.922Z,10.35
2023-02-05T16:11:01.686Z,10.50
2023-02-05T16:13:29.015Z,11.27
2023-02-05T16:16:17.193Z,10.68
2023-02-05T16:18:58.774Z,11.52
2023-02-05T16:21:32.271Z,10.85
2023-02-05T16:24:06.043Z,10.48
2023-02-05T16:27:05.219Z,11.20
2023-02-05T16:29:55.341Z,11.80
2023-02-05T16:32:38.270Z,12.43
2023-02-05T16:35:07.665Z,12.13
2023-02-05T16:37:35.837Z,12.82
2023-02-05T16:40:06.587Z,13.13
2023-02-05T16:42:42.970Z,12.02
2023-02-05T16:45:20.407Z,11.75
2023-02-05T16:48:20.196Z,11.02
2023-02-05T16:50:46.995Z,10.65
2023-02-05T16:53:26.794Z,10.90
2023-02-05T16:56:18.448Z,11.85
2023-02-05T16:58:49.759Z,12.35
2023-02-05T17:01:27.751Z,11.07
2023-02-05T17:03:55.535Z,11.48
2023-02-05T17:06:22.908Z,11.65
2023-02-05T17:08:55.490Z,12.07
2023-02-05T17:11:41.292Z,11.35
2023-02-05T17:14:32.589Z,11.83
2023-02-05T17:17:00.646Z,11.90
2023-02-05T17:19:32.328Z,11.85
2023-02-05T17:22:14.322Z,11.25
2023-02-05T17:24:46.091Z,11.05
2023-02-05T17:27:41.266Z,12.10
2023-02-05T17:30:15.641Z,12.38
2023-02-05T17:32:42.317Z,11.90
2023-02-05T17:35:14.182Z,11.73
2023-02-05T17:37:40.808Z,12.95
2023-02-05T17:40:07.968Z,11.60
2023-02-05T17:42:34.698Z,12.02
2023-02-05T17:45:01.407Z,12.60
2023-02-05T17:47:28.011Z,12.65
2023-02-05T17:49:54.884Z,12.30
2023-02-05T17:52:21.542Z,11.45
2023-02-05T17:54:48.138Z,11.65
2023-02-05T17:57:17.990Z,11.90
2023-02-05T17:59:44.963Z,11.40
2023-02-05T18:02:13.224Z,11.45
2023-02-05T18:04:41.129Z,12.27
2023-02-05T18:07:29.580Z,12.35
2023-02-05T18:09:56.562Z,12.43
2023-02-05T18:12:23.261Z,12.20
2023-02-05T18:14:50.578Z,12.90
2023-02-05T18:17:17.406Z,13.63
2023-02-05T18:19:44.148Z,12.95
2023-02-05T18:22:11.093Z,12.75
2023-02-05T18:24:39.160Z,13.50
2023-02-05T18:27:09.288Z,12.25
2023-02-05T18:29:36.749Z,11.25
2023-02-05T18:32:04.187Z,12.18
2023-02-05T18:34:30.860Z,10.98
2023-02-05T18:36:57.601Z,11.65
2023-02-05T18:39:28.417Z,11.50
2023-02-05T18:41:58.280Z,11.13
2023-02-05T18:44:25.571Z,12.52
2023-02-05T18:46:52.742Z,10.90
2023-02-05T18:49:19.469Z,10.25
2023-02-05T18:51:46.404Z,11.27
2023-02-05T18:54:13.046Z,11.60
2023-02-05T18:56:39.769Z,11.45
2023-02-05T18:59:08.290Z,12.43
2023-02-05T19:01:38.120Z,12.02
2023-02-05T19:04:10.540Z,11.05
2023-02-05T19:06:39.750Z,11.60
2023-02-05T19:09:06.377Z,12.38
2023-02-05T19:11:33.987Z,12.23
2023-02-05T19:14:03.588Z,11.40
2023-02-05T19:16:32.341Z,11.60
2023-02-05T19:18:59.839Z,11.25
2023-02-05T19:21:29.276Z,11.25
2023-02-05T19:23:57.402Z,12.20
2023-02-05T19:26:26.727Z,13.20
2023-02-05T19:28:58.791Z,12.07
2023-02-05T19:31:28.041Z,11.43
2023-02-05T19:33:56.132Z,12.48
2023-02-05T19:36:23.756Z,12.45
2023-02-05T19:38:50.593Z,12.45
2023-02-05T19:41:19.872Z,12.75
2023-02-05T19:43:51.552Z,12.05
2023-02-05T19:46:20.428Z,12.98
2023-02-05T19:48:47.752Z,13.55
2023-02-05T19:51:15.582Z,13.45
2023-02-05T19:53:44.017Z,12.55
2023-02-05T19:56:13.645Z,12.60
2023-02-05T19:58:43.200Z,12.68
2023-02-05T20:01:20.511Z,12.55
2023-02-05T20:03:47.314Z,12.93
2023-02-05T20:06:16.607Z,12.43
2023-02-05T20:08:44.666Z,13.20
2023-02-05T20:11:11.500Z,12.73
2023-02-05T20:13:39.507Z,13.65
2023-02-05T20:16:10.577Z,12.05
2023-02-05T20:18:38.273Z,12.60
2023-02-05T20:21:16.208Z,11.73
2023-02-05T20:23:42.852Z,13.07
2023-02-05T20:26:10.391Z,12.43
2023-02-05T20:29:00.016Z,11.57
2023-02-05T20:31:34.992Z,12.32
2023-02-05T20:34:03.107Z,13.13
2023-02-05T20:36:31.094Z,13.52
2023-02-05T20:38:59.510Z,11.57
2023-02-05T20:41:26.494Z,12.90
2023-02-05T20:43:53.707Z,12.25
2023-02-05T20:46:20.612Z,12.25
2023-02-05T20:48:48.442Z,12.02
2023-02-05T20:51:17.224Z,11.88
2023-02-05T20:53:44.277Z,11.88
2023-02-05T20:56:13.773Z,13.00
2023-02-05T20:58:40.918Z,13.20
2023-02-05T21:01:10.170Z,13.48
2023-02-05T21:03:38.533Z,12.82
2023-02-05T21:06:05.532Z,13.23
2023-02-05T21:08:32.387Z,13.52
2023-02-05T21:10:59.035Z,12.80
2023-02-05T21:13:25.662Z,11.82
2023-02-05T21:15:57.910Z,12.02
2023-02-05T21:18:26.382Z,13.77
2023-02-05T21:20:53.894Z,12.15
2023-02-05T21:23:21.148Z,12.35
2023-02-05T21:25:48.114Z,12.35
2023-02-05T21:28:15.389Z,13.07
2023-02-05T21:30:43.268Z,12.93
2023-02-05T21:33:09.962Z,11.88
2023-02-05T21:35:39.580Z,12.80
2023-02-05T21:38:06.196Z,13.05
2023-02-05T21:40:33.492Z,12.95
2023-02-05T21:43:00.346Z,11.27
2023-02-05T21:45:26.989Z,11.90
2023-02-05T21:47:53.643Z,12.13
2023-02-05T21:50:20.588Z,10.90
2023-02-05T21:52:47.268Z,11.38
2023-02-05T21:55:13.874Z,13.00
2023-02-05T21:57:40.498Z,12.20
2023-02-05T22:00:07.385Z,11.23
2023-02-05T22:02:33.990Z,11.43
2023-02-05T22:05:00.639Z,11.68
2023-02-05T22:07:27.264Z,12.20
2023-02-05T22:09:53.888Z,11.70
2023-02-05T22:12:20.539Z,11.40
2023-02-05T22:14:48.236Z,11.55
2023-02-05T22:17:14.852Z,11.13
2023-02-05T22:19:41.498Z,10.90
2023-02-05T22:22:08.155Z,11.60
2023-02-05T22:24:34.855Z,12.00
2023-02-05T22:27:01.643Z,11.90
2023-02-05T22:29:28.286Z,11.15
2023-02-05T22:31:55.029Z,11.85
2023-02-05T22:34:22.380Z,11.10
2023-02-05T22:36:49.063Z,11.15
2023-02-05T22:39:15.737Z,13.85
2023-02-05T22:41:43.441Z,11.10
2023-02-05T22:44:11.586Z,10.75
2023-02-05T22:46:43.546Z,10.50
2023-02-05T22:49:15.149Z,10.45
2023-02-05T22:51:42.375Z,11.90
2023-02-05T22:54:11.744Z,10.68
2023-02-05T22:56:38.516Z,10.85
2023-02-05T22:59:05.670Z,10.60
2023-02-05T23:01:34.683Z,11.23
2023-02-05T23:04:03.384Z,10.45
2023-02-05T23:06:32.719Z,11.30
2023-02-05T23:09:15.099Z,12.10
2023-02-05T23:11:42.971Z,11.05
2023-02-05T23:14:10.785Z,11.23
2023-02-05T23:16:41.305Z,11.65
2023-02-05T23:19:11.224Z,10.55
2023-02-05T23:21:39.091Z,11.00
2023-02-05T23:24:06.671Z,10.98
2023-02-05T23:26:38.571Z,11.90
2023-02-05T23:29:05.845Z,11.95
2023-02-05T23:31:33.389Z,11.35
2023-02-05T23:34:00.117Z,11.07
2023-02-05T23:36:26.724Z,10.85
2023-02-05T23:38:53.357Z,10.85
2023-02-05T23:41:35.456Z,11.85
2023-02-05T23:44:03.754Z,12.93
2023-02-05T23:46:30.414Z,10.85
2023-02-05T23:48:57.500Z,11.50
2023-02-05T23:51:24.138Z,12.57
2023-02-05T23:53:50.912Z,13.55
2023-02-05T23:56:17.601Z,12.13
2023-02-05T23:58:44.271Z,12.32
